罗盘
风向 的 风向 350°
风向 到 风: 15 kt, 阵阵 22 kt, 4 beaufort

添加一条跑道以查看侧风和逆风信息。

添置 跑道
0 5.000 10.000 15.000 20.000
SCT 11.000 ft
METAR CYYC 300900Z 35015G22KT 15SM SCT110 12/08 A3011 RMK AC4 SLP204 DENSITY ALT 3900FT

METAR Calgary / Christiansen Field - CRS3

Calgary / Christiansen Field是Calgary,加拿大中的小机场。 视场标高为3.820 ft。 该领域的国际民航组织标志是CRS3.

这份报告是针对2022年9月30日 03:00, 当地时间在Calgary International Airport进行的。

机场观察

风向为350°,速度为15 kt。 已测得22 kt的阵风。

可见度为15 mi。

有疏云,零星散落的云朵在11.000 ft的高度。 没有观察到天花板。

温度和风寒是12 °C。 露点为8 °C,相对湿度为77%。 海平面上的气压为30,11 inHg (QNH)。

白天

今天,太阳从07:35升起,在19:16降落。 这适用于Calgary / Christiansen Field,世界夏令时可能有所不同。 当地时间与世界标准时间之间的时差为-6 小时。 夏令时目前正在进行中。

公司介绍

我们没有关于这个机场的公司信息。

体会

到Vliegles.nl去找飞行课程,跳伞和其他飞行体验。 浏览页面,了解Calgary / Christiansen Field附近所有可用的活动。 你也可以使用搜索功能来寻找你所在地附近的特定飞行课程、跳伞或其他飞行体验。

乌云

11.000 ft SCT 疏云,零星散落的云朵

温度 & 天气

温度 12 °C
露点 8 °C
相对湿度 77%
Kp-index 1 (0-9)

评论

SLP204海平面压力为30,13 inHg (30,13 inHg)
AC4 DENSITY ALT 3900FT

白天

日出
07:35 (4h 10m)
中午
13:25
日落
19:16

小工具

你想在你的网站上有一个关于Calgary / Christiansen Field的当前航空天气(METAR)的小部件吗?

</> 显示HTML代码

我们和第三方通过cookies跟踪您在我们网站上的上网行为。如果您继续,我们认为您同意我们的cookie政策。 了解更多